sensor_id;sensor_type;location;lat;lon;timestamp;P1;durP1;ratioP1;P2;durP2;ratioP2
17570;SDS011;8903;52.220;20.978;2022-11-23T00:00:45;70.73;;;31.43;;
17570;SDS011;8903;52.220;20.978;2022-11-23T00:03:12;75.80;;;31.63;;
17570;SDS011;8903;52.220;20.978;2022-11-23T00:05:40;71.50;;;32.80;;
17570;SDS011;8903;52.220;20.978;2022-11-23T00:08:07;72.77;;;32.00;;
17570;SDS011;8903;52.220;20.978;2022-11-23T00:10:36;75.63;;;33.30;;
17570;SDS011;8903;52.220;20.978;2022-11-23T00:13:13;73.43;;;30.47;;
17570;SDS011;8903;52.220;20.978;2022-11-23T00:15:41;62.60;;;30.67;;
17570;SDS011;8903;52.220;20.978;2022-11-23T00:18:08;73.03;;;30.20;;
17570;SDS011;8903;52.220;20.978;2022-11-23T00:20:37;67.67;;;30.83;;
17570;SDS011;8903;52.220;20.978;2022-11-23T00:23:06;62.27;;;27.53;;
17570;SDS011;8903;52.220;20.978;2022-11-23T00:25:39;75.07;;;32.53;;
17570;SDS011;8903;52.220;20.978;2022-11-23T00:28:09;76.07;;;30.50;;
17570;SDS011;8903;52.220;20.978;2022-11-23T00:30:36;71.97;;;31.00;;
17570;SDS011;8903;52.220;20.978;2022-11-23T00:33:04;80.20;;;32.10;;
17570;SDS011;8903;52.220;20.978;2022-11-23T00:35:31;76.30;;;31.70;;
17570;SDS011;8903;52.220;20.978;2022-11-23T00:37:59;69.17;;;28.50;;
17570;SDS011;8903;52.220;20.978;2022-11-23T00:40:26;73.53;;;30.53;;
17570;SDS011;8903;52.220;20.978;2022-11-23T00:42:55;69.90;;;30.30;;
17570;SDS011;8903;52.220;20.978;2022-11-23T00:45:23;67.03;;;30.50;;
17570;SDS011;8903;52.220;20.978;2022-11-23T00:47:52;66.67;;;30.43;;
17570;SDS011;8903;52.220;20.978;2022-11-23T00:50:20;77.90;;;29.70;;
17570;SDS011;8903;52.220;20.978;2022-11-23T00:52:49;68.50;;;27.77;;
17570;SDS011;8903;52.220;20.978;2022-11-23T00:55:16;67.60;;;30.33;;
17570;SDS011;8903;52.220;20.978;2022-11-23T00:57:43;69.17;;;28.10;;
17570;SDS011;8903;52.220;20.978;2022-11-23T01:00:13;74.47;;;30.60;;
17570;SDS011;8903;52.220;20.978;2022-11-23T01:02:41;64.47;;;27.80;;
17570;SDS011;8903;52.220;20.978;2022-11-23T01:05:19;70.50;;;30.60;;
17570;SDS011;8903;52.220;20.978;2022-11-23T01:07:47;80.37;;;30.50;;
17570;SDS011;8903;52.220;20.978;2022-11-23T01:10:14;68.87;;;28.83;;
17570;SDS011;8903;52.220;20.978;2022-11-23T01:12:41;61.73;;;29.93;;
17570;SDS011;8903;52.220;20.978;2022-11-23T01:15:08;68.40;;;28.80;;
17570;SDS011;8903;52.220;20.978;2022-11-23T01:17:36;76.63;;;30.50;;
17570;SDS011;8903;52.220;20.978;2022-11-23T01:20:04;67.50;;;28.60;;
17570;SDS011;8903;52.220;20.978;2022-11-23T01:22:33;61.83;;;26.70;;
17570;SDS011;8903;52.220;20.978;2022-11-23T01:25:00;69.83;;;28.60;;
17570;SDS011;8903;52.220;20.978;2022-11-23T01:27:28;73.17;;;29.90;;
17570;SDS011;8903;52.220;20.978;2022-11-23T01:29:57;65.70;;;28.47;;
17570;SDS011;8903;52.220;20.978;2022-11-23T01:32:27;58.30;;;27.57;;
17570;SDS011;8903;52.220;20.978;2022-11-23T01:34:57;69.20;;;30.77;;
17570;SDS011;8903;52.220;20.978;2022-11-23T01:37:27;60.23;;;28.13;;
17570;SDS011;8903;52.220;20.978;2022-11-23T01:39:54;77.93;;;30.40;;
17570;SDS011;8903;52.220;20.978;2022-11-23T01:42:21;62.07;;;27.57;;
17570;SDS011;8903;52.220;20.978;2022-11-23T01:44:49;59.33;;;28.03;;
17570;SDS011;8903;52.220;20.978;2022-11-23T01:47:19;72.20;;;28.37;;
17570;SDS011;8903;52.220;20.978;2022-11-23T01:49:47;72.10;;;29.23;;
17570;SDS011;8903;52.220;20.978;2022-11-23T01:52:19;64.93;;;29.53;;
17570;SDS011;8903;52.220;20.978;2022-11-23T01:54:49;69.60;;;28.93;;
17570;SDS011;8903;52.220;20.978;2022-11-23T01:57:20;63.33;;;27.70;;
17570;SDS011;8903;52.220;20.978;2022-11-23T01:59:50;76.43;;;28.23;;
17570;SDS011;8903;52.220;20.978;2022-11-23T02:02:18;58.50;;;26.33;;
17570;SDS011;8903;52.220;20.978;2022-11-23T02:04:48;61.50;;;28.40;;
17570;SDS011;8903;52.220;20.978;2022-11-23T02:07:16;61.90;;;27.53;;
17570;SDS011;8903;52.220;20.978;2022-11-23T02:09:49;58.50;;;26.70;;
17570;SDS011;8903;52.220;20.978;2022-11-23T02:12:18;58.63;;;27.60;;
17570;SDS011;8903;52.220;20.978;2022-11-23T02:14:45;55.53;;;26.80;;
17570;SDS011;8903;52.220;20.978;2022-11-23T02:17:13;56.00;;;24.30;;
17570;SDS011;8903;52.220;20.978;2022-11-23T02:19:42;50.67;;;23.97;;
17570;SDS011;8903;52.220;20.978;2022-11-23T02:22:25;60.20;;;27.00;;
17570;SDS011;8903;52.220;20.978;2022-11-23T02:24:59;57.40;;;26.30;;
17570;SDS011;8903;52.220;20.978;2022-11-23T02:27:34;58.20;;;26.63;;
17570;SDS011;8903;52.220;20.978;2022-11-23T02:30:01;49.67;;;23.40;;
17570;SDS011;8903;52.220;20.978;2022-11-23T02:32:30;57.40;;;25.67;;
17570;SDS011;8903;52.220;20.978;2022-11-23T02:34:58;52.97;;;26.63;;
17570;SDS011;8903;52.220;20.978;2022-11-23T02:37:26;63.50;;;26.97;;
17570;SDS011;8903;52.220;20.978;2022-11-23T02:39:53;58.37;;;26.77;;
17570;SDS011;8903;52.220;20.978;2022-11-23T02:42:23;51.77;;;26.80;;
17570;SDS011;8903;52.220;20.978;2022-11-23T02:44:59;49.90;;;24.43;;
17570;SDS011;8903;52.220;20.978;2022-11-23T02:47:35;61.03;;;26.33;;
17570;SDS011;8903;52.220;20.978;2022-11-23T02:50:02;59.77;;;27.27;;
17570;SDS011;8903;52.220;20.978;2022-11-23T02:52:30;58.87;;;25.80;;
17570;SDS011;8903;52.220;20.978;2022-11-23T02:54:57;66.90;;;27.27;;
17570;SDS011;8903;52.220;20.978;2022-11-23T02:57:25;54.10;;;25.10;;
17570;SDS011;8903;52.220;20.978;2022-11-23T02:59:53;64.20;;;26.80;;
17570;SDS011;8903;52.220;20.978;2022-11-23T03:02:22;64.80;;;27.97;;
17570;SDS011;8903;52.220;20.978;2022-11-23T03:04:50;56.77;;;27.10;;
17570;SDS011;8903;52.220;20.978;2022-11-23T03:07:24;55.67;;;25.33;;
17570;SDS011;8903;52.220;20.978;2022-11-23T03:09:52;60.83;;;24.97;;
17570;SDS011;8903;52.220;20.978;2022-11-23T03:12:18;58.63;;;25.30;;
17570;SDS011;8903;52.220;20.978;2022-11-23T03:14:49;69.63;;;27.33;;
17570;SDS011;8903;52.220;20.978;2022-11-23T03:17:16;59.90;;;25.80;;
17570;SDS011;8903;52.220;20.978;2022-11-23T03:19:46;57.83;;;25.70;;
17570;SDS011;8903;52.220;20.978;2022-11-23T03:22:13;61.83;;;27.37;;
17570;SDS011;8903;52.220;20.978;2022-11-23T03:24:40;67.73;;;27.67;;
17570;SDS011;8903;52.220;20.978;2022-11-23T03:27:11;56.60;;;27.03;;
17570;SDS011;8903;52.220;20.978;2022-11-23T03:29:44;64.93;;;25.20;;
17570;SDS011;8903;52.220;20.978;2022-11-23T03:32:16;61.47;;;26.93;;
17570;SDS011;8903;52.220;20.978;2022-11-23T03:34:49;65.27;;;22.20;;
17570;SDS011;8903;52.220;20.978;2022-11-23T03:37:18;55.90;;;24.20;;
17570;SDS011;8903;52.220;20.978;2022-11-23T03:39:46;55.00;;;24.67;;
17570;SDS011;8903;52.220;20.978;2022-11-23T03:42:31;55.10;;;24.87;;
17570;SDS011;8903;52.220;20.978;2022-11-23T03:44:58;53.30;;;23.60;;
17570;SDS011;8903;52.220;20.978;2022-11-23T03:47:27;58.97;;;24.30;;
17570;SDS011;8903;52.220;20.978;2022-11-23T03:49:55;67.00;;;26.60;;
17570;SDS011;8903;52.220;20.978;2022-11-23T03:52:23;56.87;;;25.00;;
17570;SDS011;8903;52.220;20.978;2022-11-23T03:54:50;56.10;;;24.13;;
17570;SDS011;8903;52.220;20.978;2022-11-23T03:57:17;60.13;;;24.90;;
17570;SDS011;8903;52.220;20.978;2022-11-23T03:59:45;57.53;;;24.40;;
17570;SDS011;8903;52.220;20.978;2022-11-23T04:02:12;51.87;;;23.83;;
17570;SDS011;8903;52.220;20.978;2022-11-23T04:04:47;59.20;;;25.87;;
17570;SDS011;8903;52.220;20.978;2022-11-23T04:07:41;54.70;;;22.77;;
17570;SDS011;8903;52.220;20.978;2022-11-23T04:10:09;58.40;;;25.10;;
17570;SDS011;8903;52.220;20.978;2022-11-23T04:13:00;51.60;;;22.47;;
17570;SDS011;8903;52.220;20.978;2022-11-23T04:15:28;47.43;;;22.00;;
17570;SDS011;8903;52.220;20.978;2022-11-23T04:17:58;55.43;;;24.43;;
17570;SDS011;8903;52.220;20.978;2022-11-23T04:20:27;60.60;;;23.07;;
17570;SDS011;8903;52.220;20.978;2022-11-23T04:22:55;56.43;;;22.50;;
17570;SDS011;8903;52.220;20.978;2022-11-23T04:25:24;53.73;;;25.60;;
17570;SDS011;8903;52.220;20.978;2022-11-23T04:27:51;45.10;;;22.90;;
17570;SDS011;8903;52.220;20.978;2022-11-23T04:30:18;47.33;;;23.03;;
17570;SDS011;8903;52.220;20.978;2022-11-23T04:32:45;53.67;;;21.57;;
17570;SDS011;8903;52.220;20.978;2022-11-23T04:35:13;49.47;;;21.70;;
17570;SDS011;8903;52.220;20.978;2022-11-23T04:37:42;44.90;;;20.27;;
17570;SDS011;8903;52.220;20.978;2022-11-23T04:40:13;48.47;;;22.73;;
17570;SDS011;8903;52.220;20.978;2022-11-23T04:43:00;51.77;;;23.00;;
17570;SDS011;8903;52.220;20.978;2022-11-23T04:45:31;52.07;;;22.33;;
17570;SDS011;8903;52.220;20.978;2022-11-23T04:48:03;46.77;;;21.23;;
17570;SDS011;8903;52.220;20.978;2022-11-23T04:50:32;45.87;;;20.07;;
17570;SDS011;8903;52.220;20.978;2022-11-23T04:53:00;52.63;;;20.90;;
17570;SDS011;8903;52.220;20.978;2022-11-23T04:55:39;45.53;;;20.37;;
17570;SDS011;8903;52.220;20.978;2022-11-23T04:58:06;44.70;;;19.30;;
17570;SDS011;8903;52.220;20.978;2022-11-23T05:00:33;36.43;;;18.57;;
17570;SDS011;8903;52.220;20.978;2022-11-23T05:03:02;40.10;;;18.00;;
17570;SDS011;8903;52.220;20.978;2022-11-23T05:05:32;35.40;;;18.40;;
17570;SDS011;8903;52.220;20.978;2022-11-23T05:08:02;38.67;;;18.43;;
17570;SDS011;8903;52.220;20.978;2022-11-23T05:10:44;37.27;;;18.07;;
17570;SDS011;8903;52.220;20.978;2022-11-23T05:13:12;37.10;;;17.73;;
17570;SDS011;8903;52.220;20.978;2022-11-23T05:15:39;36.80;;;18.10;;
17570;SDS011;8903;52.220;20.978;2022-11-23T05:18:06;41.93;;;18.03;;
17570;SDS011;8903;52.220;20.978;2022-11-23T05:20:35;37.00;;;17.60;;
17570;SDS011;8903;52.220;20.978;2022-11-23T05:23:02;37.20;;;18.23;;
17570;SDS011;8903;52.220;20.978;2022-11-23T05:25:32;34.50;;;18.90;;
17570;SDS011;8903;52.220;20.978;2022-11-23T05:28:04;39.97;;;19.63;;
17570;SDS011;8903;52.220;20.978;2022-11-23T05:30:31;38.00;;;18.70;;
17570;SDS011;8903;52.220;20.978;2022-11-23T05:33:00;44.23;;;19.30;;
17570;SDS011;8903;52.220;20.978;2022-11-23T05:35:31;35.03;;;17.17;;
17570;SDS011;8903;52.220;20.978;2022-11-23T05:37:59;39.93;;;18.00;;
17570;SDS011;8903;52.220;20.978;2022-11-23T05:40:28;38.77;;;19.53;;
17570;SDS011;8903;52.220;20.978;2022-11-23T05:42:57;35.93;;;17.70;;
17570;SDS011;8903;52.220;20.978;2022-11-23T05:45:26;35.40;;;18.60;;
17570;SDS011;8903;52.220;20.978;2022-11-23T05:47:56;44.03;;;19.57;;
17570;SDS011;8903;52.220;20.978;2022-11-23T05:50:36;39.43;;;19.30;;
17570;SDS011;8903;52.220;20.978;2022-11-23T05:53:24;33.37;;;17.60;;
17570;SDS011;8903;52.220;20.978;2022-11-23T05:55:58;36.17;;;18.07;;
17570;SDS011;8903;52.220;20.978;2022-11-23T05:58:28;37.70;;;17.77;;
17570;SDS011;8903;52.220;20.978;2022-11-23T06:00:59;35.70;;;16.63;;
17570;SDS011;8903;52.220;20.978;2022-11-23T06:03:30;35.97;;;17.20;;
17570;SDS011;8903;52.220;20.978;2022-11-23T06:05:58;36.23;;;17.77;;
17570;SDS011;8903;52.220;20.978;2022-11-23T06:08:32;35.20;;;17.53;;
17570;SDS011;8903;52.220;20.978;2022-11-23T06:11:01;39.20;;;18.10;;
17570;SDS011;8903;52.220;20.978;2022-11-23T06:13:29;39.30;;;16.97;;
17570;SDS011;8903;52.220;20.978;2022-11-23T06:15:56;33.73;;;18.53;;
17570;SDS011;8903;52.220;20.978;2022-11-23T06:18:35;30.53;;;16.77;;
17570;SDS011;8903;52.220;20.978;2022-11-23T06:21:02;35.77;;;16.60;;
17570;SDS011;8903;52.220;20.978;2022-11-23T06:23:30;32.00;;;17.00;;
17570;SDS011;8903;52.220;20.978;2022-11-23T06:25:58;43.40;;;17.20;;
17570;SDS011;8903;52.220;20.978;2022-11-23T06:28:28;33.87;;;17.97;;
17570;SDS011;8903;52.220;20.978;2022-11-23T06:31:00;33.87;;;16.57;;
17570;SDS011;8903;52.220;20.978;2022-11-23T06:33:33;31.27;;;15.83;;
17570;SDS011;8903;52.220;20.978;2022-11-23T06:36:03;34.13;;;16.90;;
17570;SDS011;8903;52.220;20.978;2022-11-23T06:38:36;38.70;;;18.67;;
17570;SDS011;8903;52.220;20.978;2022-11-23T06:41:16;32.60;;;17.37;;
17570;SDS011;8903;52.220;20.978;2022-11-23T06:43:45;32.60;;;17.93;;
17570;SDS011;8903;52.220;20.978;2022-11-23T06:46:19;33.30;;;17.13;;
17570;SDS011;8903;52.220;20.978;2022-11-23T06:48:46;35.10;;;18.33;;
17570;SDS011;8903;52.220;20.978;2022-11-23T06:51:17;38.03;;;17.50;;
17570;SDS011;8903;52.220;20.978;2022-11-23T06:53:46;36.23;;;17.23;;
17570;SDS011;8903;52.220;20.978;2022-11-23T06:56:14;27.67;;;16.17;;
17570;SDS011;8903;52.220;20.978;2022-11-23T06:58:42;28.40;;;15.80;;
17570;SDS011;8903;52.220;20.978;2022-11-23T07:01:16;28.33;;;16.30;;
17570;SDS011;8903;52.220;20.978;2022-11-23T07:03:53;36.07;;;16.50;;
17570;SDS011;8903;52.220;20.978;2022-11-23T07:06:52;29.50;;;15.40;;
17570;SDS011;8903;52.220;20.978;2022-11-23T07:09:30;28.57;;;15.20;;
17570;SDS011;8903;52.220;20.978;2022-11-23T07:12:21;26.43;;;14.87;;
17570;SDS011;8903;52.220;20.978;2022-11-23T07:14:51;30.90;;;15.80;;
17570;SDS011;8903;52.220;20.978;2022-11-23T07:17:20;28.20;;;15.20;;
17570;SDS011;8903;52.220;20.978;2022-11-23T07:19:48;38.00;;;16.87;;
17570;SDS011;8903;52.220;20.978;2022-11-23T07:22:25;34.40;;;16.20;;
17570;SDS011;8903;52.220;20.978;2022-11-23T07:24:53;36.47;;;17.60;;
17570;SDS011;8903;52.220;20.978;2022-11-23T07:27:20;35.00;;;16.63;;
17570;SDS011;8903;52.220;20.978;2022-11-23T07:29:49;37.33;;;17.63;;
17570;SDS011;8903;52.220;20.978;2022-11-23T07:32:17;41.60;;;18.10;;
17570;SDS011;8903;52.220;20.978;2022-11-23T07:34:47;28.30;;;16.77;;
17570;SDS011;8903;52.220;20.978;2022-11-23T07:37:17;31.47;;;16.83;;
17570;SDS011;8903;52.220;20.978;2022-11-23T07:39:45;32.03;;;17.50;;
17570;SDS011;8903;52.220;20.978;2022-11-23T07:42:12;33.17;;;16.50;;
17570;SDS011;8903;52.220;20.978;2022-11-23T07:44:39;34.23;;;16.57;;
17570;SDS011;8903;52.220;20.978;2022-11-23T07:47:08;26.17;;;14.40;;
17570;SDS011;8903;52.220;20.978;2022-11-23T07:49:36;31.27;;;16.60;;
17570;SDS011;8903;52.220;20.978;2022-11-23T07:52:03;30.50;;;16.23;;
17570;SDS011;8903;52.220;20.978;2022-11-23T07:54:31;26.00;;;14.90;;
17570;SDS011;8903;52.220;20.978;2022-11-23T07:56:59;30.37;;;16.23;;
17570;SDS011;8903;52.220;20.978;2022-11-23T07:59:56;32.37;;;15.00;;
17570;SDS011;8903;52.220;20.978;2022-11-23T08:02:24;29.70;;;17.73;;
17570;SDS011;8903;52.220;20.978;2022-11-23T08:04:53;32.93;;;15.67;;
17570;SDS011;8903;52.220;20.978;2022-11-23T08:07:21;25.30;;;15.20;;
17570;SDS011;8903;52.220;20.978;2022-11-23T08:09:49;30.43;;;16.43;;
17570;SDS011;8903;52.220;20.978;2022-11-23T08:12:17;25.60;;;14.73;;
17570;SDS011;8903;52.220;20.978;2022-11-23T08:14:45;29.03;;;14.60;;
17570;SDS011;8903;52.220;20.978;2022-11-23T08:17:12;41.87;;;16.00;;
17570;SDS011;8903;52.220;20.978;2022-11-23T08:19:39;34.47;;;15.83;;
17570;SDS011;8903;52.220;20.978;2022-11-23T08:22:07;29.60;;;16.50;;
17570;SDS011;8903;52.220;20.978;2022-11-23T08:24:35;32.00;;;16.00;;
17570;SDS011;8903;52.220;20.978;2022-11-23T08:27:03;32.10;;;15.70;;
17570;SDS011;8903;52.220;20.978;2022-11-23T08:29:30;30.97;;;15.23;;
17570;SDS011;8903;52.220;20.978;2022-11-23T08:31:58;31.23;;;16.00;;
17570;SDS011;8903;52.220;20.978;2022-11-23T08:34:25;34.73;;;16.00;;
17570;SDS011;8903;52.220;20.978;2022-11-23T08:36:54;30.80;;;16.03;;
17570;SDS011;8903;52.220;20.978;2022-11-23T08:39:21;30.57;;;15.80;;
17570;SDS011;8903;52.220;20.978;2022-11-23T08:41:50;37.37;;;17.33;;
17570;SDS011;8903;52.220;20.978;2022-11-23T08:44:20;30.20;;;15.13;;
17570;SDS011;8903;52.220;20.978;2022-11-23T08:46:47;31.77;;;17.70;;
17570;SDS011;8903;52.220;20.978;2022-11-23T08:49:15;32.27;;;16.47;;
17570;SDS011;8903;52.220;20.978;2022-11-23T08:51:43;32.30;;;16.87;;
17570;SDS011;8903;52.220;20.978;2022-11-23T08:54:10;29.90;;;16.50;;
17570;SDS011;8903;52.220;20.978;2022-11-23T08:56:38;36.43;;;16.50;;
17570;SDS011;8903;52.220;20.978;2022-11-23T08:59:05;28.57;;;16.87;;
17570;SDS011;8903;52.220;20.978;2022-11-23T09:01:34;28.13;;;15.23;;
17570;SDS011;8903;52.220;20.978;2022-11-23T09:04:01;37.10;;;19.63;;
17570;SDS011;8903;52.220;20.978;2022-11-23T09:06:31;32.07;;;16.63;;
17570;SDS011;8903;52.220;20.978;2022-11-23T09:08:58;29.33;;;17.70;;
17570;SDS011;8903;52.220;20.978;2022-11-23T09:11:26;32.13;;;17.90;;
17570;SDS011;8903;52.220;20.978;2022-11-23T09:13:53;38.70;;;19.60;;
17570;SDS011;8903;52.220;20.978;2022-11-23T09:16:21;34.13;;;19.17;;
17570;SDS011;8903;52.220;20.978;2022-11-23T09:18:53;30.57;;;16.73;;
17570;SDS011;8903;52.220;20.978;2022-11-23T09:21:21;29.60;;;18.93;;
17570;SDS011;8903;52.220;20.978;2022-11-23T09:23:53;34.20;;;18.57;;
17570;SDS011;8903;52.220;20.978;2022-11-23T09:26:21;31.90;;;18.07;;
17570;SDS011;8903;52.220;20.978;2022-11-23T09:28:49;40.70;;;19.27;;
17570;SDS011;8903;52.220;20.978;2022-11-23T09:31:17;34.27;;;16.90;;
17570;SDS011;8903;52.220;20.978;2022-11-23T09:33:44;31.53;;;17.40;;
17570;SDS011;8903;52.220;20.978;2022-11-23T09:36:12;30.00;;;16.40;;
17570;SDS011;8903;52.220;20.978;2022-11-23T09:38:41;34.10;;;18.20;;
17570;SDS011;8903;52.220;20.978;2022-11-23T09:41:22;27.73;;;16.53;;
17570;SDS011;8903;52.220;20.978;2022-11-23T09:44:07;33.07;;;18.03;;
17570;SDS011;8903;52.220;20.978;2022-11-23T09:46:45;35.00;;;17.90;;
17570;SDS011;8903;52.220;20.978;2022-11-23T09:49:21;28.10;;;17.50;;
17570;SDS011;8903;52.220;20.978;2022-11-23T09:51:57;36.00;;;20.10;;
17570;SDS011;8903;52.220;20.978;2022-11-23T09:54:25;34.67;;;17.83;;
17570;SDS011;8903;52.220;20.978;2022-11-23T09:56:56;36.67;;;19.90;;
17570;SDS011;8903;52.220;20.978;2022-11-23T09:59:30;33.10;;;18.87;;
17570;SDS011;8903;52.220;20.978;2022-11-23T10:02:10;30.93;;;17.57;;
17570;SDS011;8903;52.220;20.978;2022-11-23T10:04:45;40.13;;;18.23;;
17570;SDS011;8903;52.220;20.978;2022-11-23T10:07:17;32.33;;;18.37;;
17570;SDS011;8903;52.220;20.978;2022-11-23T10:10:03;36.40;;;17.83;;
17570;SDS011;8903;52.220;20.978;2022-11-23T10:12:48;34.00;;;18.47;;
17570;SDS011;8903;52.220;20.978;2022-11-23T10:15:23;38.40;;;19.87;;
17570;SDS011;8903;52.220;20.978;2022-11-23T10:17:57;32.70;;;17.27;;
17570;SDS011;8903;52.220;20.978;2022-11-23T10:23:43;32.40;;;19.33;;
17570;SDS011;8903;52.220;20.978;2022-11-23T10:26:18;36.50;;;20.37;;
17570;SDS011;8903;52.220;20.978;2022-11-23T10:28:51;33.63;;;18.97;;
17570;SDS011;8903;52.220;20.978;2022-11-23T10:31:21;33.40;;;18.30;;
17570;SDS011;8903;52.220;20.978;2022-11-23T10:33:54;28.57;;;16.40;;
17570;SDS011;8903;52.220;20.978;2022-11-23T10:36:26;37.27;;;19.43;;
17570;SDS011;8903;52.220;20.978;2022-11-23T10:38:55;29.50;;;17.30;;
17570;SDS011;8903;52.220;20.978;2022-11-23T10:41:31;36.60;;;19.00;;
17570;SDS011;8903;52.220;20.978;2022-11-23T10:44:01;33.20;;;20.13;;
17570;SDS011;8903;52.220;20.978;2022-11-23T10:46:36;31.80;;;18.67;;
17570;SDS011;8903;52.220;20.978;2022-11-23T10:49:09;39.17;;;19.30;;
17570;SDS011;8903;52.220;20.978;2022-11-23T10:51:47;30.03;;;17.30;;
17570;SDS011;8903;52.220;20.978;2022-11-23T10:54:18;35.90;;;18.20;;
17570;SDS011;8903;52.220;20.978;2022-11-23T10:56:49;40.30;;;20.83;;
17570;SDS011;8903;52.220;20.978;2022-11-23T10:59:28;35.40;;;17.40;;
17570;SDS011;8903;52.220;20.978;2022-11-23T11:02:07;31.50;;;17.53;;
17570;SDS011;8903;52.220;20.978;2022-11-23T11:04:40;37.23;;;19.30;;
17570;SDS011;8903;52.220;20.978;2022-11-23T11:09:53;38.47;;;20.30;;
17570;SDS011;8903;52.220;20.978;2022-11-23T11:12:21;30.20;;;19.27;;
17570;SDS011;8903;52.220;20.978;2022-11-23T11:14:56;40.43;;;19.77;;
17570;SDS011;8903;52.220;20.978;2022-11-23T11:17:29;33.13;;;17.80;;
17570;SDS011;8903;52.220;20.978;2022-11-23T11:19:57;32.90;;;18.27;;
17570;SDS011;8903;52.220;20.978;2022-11-23T11:22:29;32.90;;;16.10;;
17570;SDS011;8903;52.220;20.978;2022-11-23T11:25:04;27.83;;;15.57;;
17570;SDS011;8903;52.220;20.978;2022-11-23T11:27:32;32.17;;;18.30;;
17570;SDS011;8903;52.220;20.978;2022-11-23T11:30:04;32.13;;;16.93;;
17570;SDS011;8903;52.220;20.978;2022-11-23T11:32:37;29.10;;;18.43;;
17570;SDS011;8903;52.220;20.978;2022-11-23T11:35:12;40.20;;;18.97;;
17570;SDS011;8903;52.220;20.978;2022-11-23T11:37:43;35.37;;;18.60;;
17570;SDS011;8903;52.220;20.978;2022-11-23T11:40:17;32.73;;;18.13;;
17570;SDS011;8903;52.220;20.978;2022-11-23T11:42:52;32.53;;;18.00;;
17570;SDS011;8903;52.220;20.978;2022-11-23T11:45:23;28.43;;;17.40;;
17570;SDS011;8903;52.220;20.978;2022-11-23T11:47:55;30.20;;;17.50;;
17570;SDS011;8903;52.220;20.978;2022-11-23T11:50:37;29.40;;;18.03;;
17570;SDS011;8903;52.220;20.978;2022-11-23T11:53:30;29.90;;;18.50;;
17570;SDS011;8903;52.220;20.978;2022-11-23T11:56:10;33.17;;;17.47;;
17570;SDS011;8903;52.220;20.978;2022-11-23T11:58:42;27.07;;;17.47;;
17570;SDS011;8903;52.220;20.978;2022-11-23T12:01:20;32.40;;;18.10;;
17570;SDS011;8903;52.220;20.978;2022-11-23T12:03:58;30.07;;;17.63;;
17570;SDS011;8903;52.220;20.978;2022-11-23T12:06:34;31.40;;;18.50;;
17570;SDS011;8903;52.220;20.978;2022-11-23T12:09:06;29.53;;;18.07;;
17570;SDS011;8903;52.220;20.978;2022-11-23T12:11:39;33.30;;;19.00;;
17570;SDS011;8903;52.220;20.978;2022-11-23T12:14:08;34.40;;;19.57;;
17570;SDS011;8903;52.220;20.978;2022-11-23T12:16:40;34.47;;;19.30;;
17570;SDS011;8903;52.220;20.978;2022-11-23T12:19:17;31.83;;;16.60;;
17570;SDS011;8903;52.220;20.978;2022-11-23T12:27:48;40.83;;;19.60;;
17570;SDS011;8903;52.220;20.978;2022-11-23T12:30:25;43.70;;;20.60;;
17570;SDS011;8903;52.220;20.978;2022-11-23T12:33:11;34.70;;;19.90;;
17570;SDS011;8903;52.220;20.978;2022-11-23T12:36:12;31.87;;;17.10;;
17570;SDS011;8903;52.220;20.978;2022-11-23T12:38:53;35.90;;;19.90;;
17570;SDS011;8903;52.220;20.978;2022-11-23T12:41:27;33.63;;;19.67;;
17570;SDS011;8903;52.220;20.978;2022-11-23T12:47:17;38.73;;;20.57;;
17570;SDS011;8903;52.220;20.978;2022-11-23T12:49:58;33.27;;;18.60;;
17570;SDS011;8903;52.220;20.978;2022-11-23T12:52:38;33.47;;;18.97;;
17570;SDS011;8903;52.220;20.978;2022-11-23T12:55:18;39.03;;;20.83;;
17570;SDS011;8903;52.220;20.978;2022-11-23T12:57:52;37.80;;;20.30;;
17570;SDS011;8903;52.220;20.978;2022-11-23T13:00:29;35.37;;;20.47;;
17570;SDS011;8903;52.220;20.978;2022-11-23T13:09:37;40.63;;;22.97;;
17570;SDS011;8903;52.220;20.978;2022-11-23T13:12:17;40.10;;;21.57;;
17570;SDS011;8903;52.220;20.978;2022-11-23T13:14:58;47.30;;;23.20;;
17570;SDS011;8903;52.220;20.978;2022-11-23T13:17:37;41.03;;;22.43;;
17570;SDS011;8903;52.220;20.978;2022-11-23T13:20:23;41.10;;;22.87;;
17570;SDS011;8903;52.220;20.978;2022-11-23T13:23:08;39.37;;;21.67;;
17570;SDS011;8903;52.220;20.978;2022-11-23T13:25:38;46.93;;;23.53;;
17570;SDS011;8903;52.220;20.978;2022-11-23T13:33:54;46.83;;;23.37;;
17570;SDS011;8903;52.220;20.978;2022-11-23T13:36:40;36.63;;;21.37;;
17570;SDS011;8903;52.220;20.978;2022-11-23T13:42:30;46.83;;;22.93;;
17570;SDS011;8903;52.220;20.978;2022-11-23T13:45:13;45.13;;;23.43;;
17570;SDS011;8903;52.220;20.978;2022-11-23T13:48:05;42.73;;;21.40;;
17570;SDS011;8903;52.220;20.978;2022-11-23T13:50:55;41.20;;;22.50;;
17570;SDS011;8903;52.220;20.978;2022-11-23T13:53:29;46.03;;;24.20;;
17570;SDS011;8903;52.220;20.978;2022-11-23T13:56:15;39.10;;;22.30;;
17570;SDS011;8903;52.220;20.978;2022-11-23T13:58:56;38.60;;;22.50;;
17570;SDS011;8903;52.220;20.978;2022-11-23T14:04:49;43.30;;;23.03;;
17570;SDS011;8903;52.220;20.978;2022-11-23T14:07:18;45.17;;;22.63;;
17570;SDS011;8903;52.220;20.978;2022-11-23T14:09:49;41.37;;;22.50;;
17570;SDS011;8903;52.220;20.978;2022-11-23T14:12:21;43.80;;;23.00;;
17570;SDS011;8903;52.220;20.978;2022-11-23T14:15:02;40.60;;;23.00;;
17570;SDS011;8903;52.220;20.978;2022-11-23T14:20:41;51.07;;;22.43;;
17570;SDS011;8903;52.220;20.978;2022-11-23T14:23:19;46.47;;;24.10;;
17570;SDS011;8903;52.220;20.978;2022-11-23T14:26:07;44.87;;;23.60;;
17570;SDS011;8903;52.220;20.978;2022-11-23T14:28:47;51.43;;;26.97;;
17570;SDS011;8903;52.220;20.978;2022-11-23T14:31:31;46.70;;;25.20;;
17570;SDS011;8903;52.220;20.978;2022-11-23T14:34:09;51.37;;;25.80;;
17570;SDS011;8903;52.220;20.978;2022-11-23T14:36:48;58.93;;;29.30;;
17570;SDS011;8903;52.220;20.978;2022-11-23T14:42:28;53.63;;;27.20;;
17570;SDS011;8903;52.220;20.978;2022-11-23T14:44:59;49.67;;;28.33;;
17570;SDS011;8903;52.220;20.978;2022-11-23T14:47:30;53.63;;;27.40;;
17570;SDS011;8903;52.220;20.978;2022-11-23T14:49:58;55.27;;;25.60;;
17570;SDS011;8903;52.220;20.978;2022-11-23T14:52:26;53.30;;;26.67;;
17570;SDS011;8903;52.220;20.978;2022-11-23T14:54:55;50.97;;;25.80;;
17570;SDS011;8903;52.220;20.978;2022-11-23T14:57:25;55.17;;;27.37;;
17570;SDS011;8903;52.220;20.978;2022-11-23T15:00:19;58.07;;;28.13;;
17570;SDS011;8903;52.220;20.978;2022-11-23T15:02:54;51.83;;;28.00;;
17570;SDS011;8903;52.220;20.978;2022-11-23T15:05:25;57.07;;;25.60;;
17570;SDS011;8903;52.220;20.978;2022-11-23T15:07:57;65.90;;;28.53;;
17570;SDS011;8903;52.220;20.978;2022-11-23T15:10:29;56.00;;;27.60;;
17570;SDS011;8903;52.220;20.978;2022-11-23T15:13:15;49.93;;;27.60;;
17570;SDS011;8903;52.220;20.978;2022-11-23T15:15:58;62.20;;;30.07;;
17570;SDS011;8903;52.220;20.978;2022-11-23T15:18:33;60.23;;;30.90;;
17570;SDS011;8903;52.220;20.978;2022-11-23T15:21:05;65.40;;;28.87;;
17570;SDS011;8903;52.220;20.978;2022-11-23T15:23:47;75.20;;;31.73;;
17570;SDS011;8903;52.220;20.978;2022-11-23T15:26:17;60.97;;;29.77;;
17570;SDS011;8903;52.220;20.978;2022-11-23T15:28:47;68.97;;;32.97;;